Port Union, Canada
Current Conditions -  °F | °C
As of 1:00 AM on Wednesday 22 Oct 2014 (Local Time) from CYYT Reporting Station
Few Clouds Few Clouds  
Wind Chill: 36°   Ceiling: Unl
Heat Index: 41°   Visibility: 15mi
Dew Point: 39°   Wind: 8mph
Humidity: 93%   Direction: 270°W
Pressure: 30.28"   Gusts: NA
Location:  48.48°N, 53.1°W
Report Text: CYYT 220300Z 27007KT 15SM FEW034 FEW220 05/04 A3028 RMK SC1CI1 SLP258
Loading
Personal Weather Stations






























Interactive Weather Map
Tropical Storm Tracking
New forecast layout! Learn more

10-Day Weather Forecast

Advertisements
Track Severe Weather on mobile